ADDS METAR Data INFO
IDs: Format: Raw Decoded Include TAF

Data at: 0453 UTC 21 Feb 2018

K6A1 201515Z AUTO 16006KT 10SM 20/18 A3039 RMK AO2 T02020177
K6A1 201455Z AUTO 18010G17KT 10SM 19/18 A3039 RMK AO2 T01940177
K6A1 201435Z AUTO 17009KT 7SM 19/18 A3039 RMK AO2 T01880181
K6A1 201415Z AUTO 17007KT 5SM BR 18/18 A3039 RMK AO2 T01830180
K6A1 201355Z AUTO 16006KT 4SM BR 18/18 A3039 RMK AO2 T01800177
K6A1 201335Z AUTO 16006KT 1 1/2SM BR 18/18 A3039 RMK AO2 T01770175
K6A1 201315Z AUTO 17007KT 1/2SM FG 18/17 A3039 RMK AO2 T01760173
K6A1 201255Z AUTO 16007KT 1/4SM FG 18/17 A3038 RMK AO2 T01750171
K6A1 201235Z AUTO 14004KT 1/2SM FG 17/17 A3038 RMK AO2 T01730170
K6A1 201215Z AUTO 15004KT 3/4SM BR 17/17 A3037 RMK AO2 T01730170
K6A1 201155Z AUTO 15005KT 1 1/2SM BR 17/17 A3036 RMK AO2 T01720170 10178 20160
K6A1 201135Z AUTO 15005KT 1 3/4SM BR 17/17 A3036 RMK AO2 T01710168
K6A1 201115Z AUTO 15005KT 4SM BR 17/17 A3035 RMK AO2 T01700167
K6A1 201055Z AUTO 14003KT 5SM BR 17/16 A3035 RMK AO2 T01650162
K6A1 201035Z AUTO 14004KT 5SM BR 16/16 A3034 RMK AO2 T01600157
K6A1 201015Z AUTO 15004KT 7SM 16/16 A3034 RMK AO2 T01610157
K6A1 200955Z AUTO 15004KT 7SM 16/16 A3033 RMK AO2 T01600156
K6A1 200935Z AUTO 15004KT 10SM 16/16 A3033 RMK AO2 T01610156
K6A1 200915Z AUTO 16005KT 10SM 16/16 A3033 RMK AO2 T01620156
K6A1 200855Z AUTO 16006KT 10SM 17/16 A3032 RMK AO2 T01650156
K6A1 200835Z AUTO 16005KT 10SM 17/16 A3032 RMK AO2 T01660155
K6A1 200815Z AUTO 16006KT 10SM 17/16 A3032 RMK AO2 T01680155
K6A1 200755Z AUTO 15007KT 10SM 17/16 A3033 RMK AO2 T01700155
K6A1 200735Z AUTO 15005KT 10SM 17/15 A3033 RMK AO2 T01700152
K6A1 200715Z AUTO 15005KT 10SM 17/15 A3033 RMK AO2 T01700150
K6A1 200655Z AUTO 15005KT 10SM 17/15 A3033 RMK AO2 T01700148
K6A1 200635Z AUTO 16006KT 10SM 18/15 A3033 RMK AO2 T01750147
K6A1 200615Z AUTO 15004KT 10SM 18/15 A3032 RMK AO2 T01750146
K6A1 200555Z AUTO 15005KT 10SM 18/15 A3033 RMK AO2 T01800145 10213 20179 402650151
K6A1 200535Z AUTO 15005KT 10SM 18/14 A3033 RMK AO2 T01820143
K6A1 200515Z AUTO 15004KT 10SM 19/14 A3032 RMK AO2 T01850143
K6A1 200455Z AUTO 16006KT 10SM 20/15 A3032 RMK AO2 T01950145
K6A1 200435Z AUTO 15005KT 10SM 19/14 A3032 RMK AO2 T01920140
K6A1 200415Z AUTO 15006KT 10SM 19/14 A3032 RMK AO2 T01930140
K6A1 200355Z AUTO 15005KT 10SM 20/14 A3032 RMK AO2 T01960140
K6A1 200335Z AUTO 15005KT 10SM 20/14 A3031 RMK AO2 T01960140
K6A1 200315Z AUTO 16005KT 10SM 20/14 A3031 RMK AO2 T01950140
K6A1 200255Z AUTO 16006KT 10SM 20/14 A3031 RMK AO2 T01980140
K6A1 200235Z AUTO 15006KT 10SM 20/14 A3031 RMK AO2 T02000141
K6A1 200215Z AUTO 15005KT 10SM 20/14 A3031 RMK AO2 T01990142
K6A1 200155Z AUTO 15005KT 10SM 19/14 A3031 RMK AO2 T01940144
K6A1 200135Z AUTO 15004KT 10SM 20/15 A3030 RMK AO2 T01980145
K6A1 200115Z AUTO 15004KT 10SM 20/14 A3030 RMK AO2 T02000144
K6A1 200055Z AUTO 16004KT 10SM 20/15 A3029 RMK AO2 T02010145
K6A1 200035Z AUTO 16004KT 10SM 20/15 A3029 RMK AO2 T02040145
K6A1 200015Z AUTO 16004KT 10SM 21/15 A3029 RMK AO2 T02090146
K6A1 192355Z AUTO 16003KT 10SM 22/15 A3028 RMK AO2 T02150146 10265 20215
K6A1 192335Z AUTO 16004KT 10SM 22/15 A3028 RMK AO2 T02220146
K6A1 192315Z AUTO 15004KT 10SM 23/15 A3028 RMK AO2 T02330145
K6A1 192255Z AUTO 17004KT 10SM 24/14 A3027 RMK AO2 T02360140
K6A1 192235Z AUTO 17005KT 10SM 24/14 A3027 RMK AO2 T02420136
K6A1 192215Z AUTO 19005KT 10SM 24/14 A3026 RMK AO2 T02430135
K6A1 192155Z AUTO 19006KT 10SM 25/13 A3026 RMK AO2 T02500131
K6A1 192135Z AUTO 17007KT 10SM 26/14 A3026 RMK AO2 T02620135
K6A1 192115Z AUTO 19007KT 10SM 26/14 A3026 RMK AO2 T02550137
K6A1 192055Z AUTO 15007KT 10SM 26/14 A3026 RMK AO2 T02560140
K6A1 192035Z AUTO 18008KT 150V210 10SM 26/15 A3026 RMK AO2 T02640147
K6A1 192015Z AUTO 18007KT 150V210 10SM 25/15 A3026 RMK AO2 T02500151
K6A1 191955Z AUTO 19008KT 10SM 25/15 A3027 RMK AO2 T02510147
K6A1 191935Z AUTO 18008KT 150V220 10SM 25/15 A3027 RMK AO2 T02520154
K6A1 191915Z AUTO 19008G14KT 150V210 10SM 25/16 A3028 RMK AO2 T02520155
K6A1 191855Z AUTO 17008KT 140V200 10SM 24/16 A3029 RMK AO2 T02400156
K6A1 191835Z AUTO 16011KT 10SM 24/16 A3030 RMK AO2 T02430155
K6A1 191815Z AUTO 17008G14KT 10SM 25/16 A3032 RMK AO2 T02450156
K6A1 191755Z AUTO 16005KT 10SM 23/16 A3033 RMK AO2 T02330155 10237 20163
K6A1 191735Z AUTO 17007KT 10SM 23/16 A3034 RMK AO2 T02280155
K6A1 191715Z AUTO 17008KT 10SM 23/16 A3035 RMK AO2 T02260155
K6A1 191655Z AUTO 15007KT 10SM 22/15 A3036 RMK AO2 T02160153